createdAt,value
2022-09-28T00:00:23.125Z,99625.64
2022-09-28T00:01:45.006Z,99624.31
2022-09-28T00:02:47.639Z,99625.05
2022-09-28T00:03:51.520Z,99622.31
2022-09-28T00:04:53.505Z,99624.08
2022-09-28T00:06:01.595Z,99625.41
2022-09-28T00:07:03.306Z,99627.61
2022-09-28T00:08:04.960Z,99624.80
2022-09-28T00:09:07.033Z,99628.03
2022-09-28T00:10:09.093Z,99625.66
2022-09-28T00:11:14.566Z,99627.16
2022-09-28T00:12:16.191Z,99628.52
2022-09-28T00:13:17.959Z,99625.92
2022-09-28T00:14:20.457Z,99622.91
2022-09-28T00:15:24.048Z,99622.77
2022-09-28T00:16:28.907Z,99621.66
2022-09-28T00:17:30.967Z,99625.66
2022-09-28T00:18:33.309Z,99624.80
2022-09-28T00:19:34.973Z,99621.94
2022-09-28T00:20:37.090Z,99622.41
2022-09-28T00:21:40.452Z,99620.40
2022-09-28T00:22:42.291Z,99615.99
2022-09-28T00:24:03.561Z,99615.30
2022-09-28T00:25:06.711Z,99609.42
2022-09-28T00:26:08.344Z,99609.97
2022-09-28T00:27:10.031Z,99609.48
2022-09-28T00:28:11.685Z,99611.10
2022-09-28T00:29:32.978Z,99609.70
2022-09-28T00:30:34.839Z,99614.05
2022-09-28T00:31:36.868Z,99609.28
2022-09-28T00:32:38.833Z,99609.81
2022-09-28T00:33:40.487Z,99608.20
2022-09-28T00:34:48.024Z,99604.48
2022-09-28T00:35:57.617Z,99598.77
2022-09-28T00:37:00.703Z,99600.80
2022-09-28T00:38:03.195Z,99597.57
2022-09-28T00:39:07.536Z,99596.34
2022-09-28T00:40:09.398Z,99596.84
2022-09-28T00:41:11.453Z,99594.73
2022-09-28T00:42:14.981Z,99593.11
2022-09-28T00:43:18.764Z,99595.14
2022-09-28T00:44:26.519Z,99593.95
2022-09-28T00:45:30.080Z,99597.17
2022-09-28T00:46:34.611Z,99597.59
2022-09-28T00:47:51.760Z,99598.11
2022-09-28T00:49:17.079Z,99596.71
2022-09-28T00:50:29.138Z,99596.96
2022-09-28T00:51:31.900Z,99593.61
2022-09-28T00:52:35.799Z,99598.60
2022-09-28T00:53:42.242Z,99597.55
2022-09-28T00:54:46.921Z,99593.77
2022-09-28T00:55:54.058Z,99592.29
2022-09-28T00:56:57.155Z,99591.04
2022-09-28T00:58:03.101Z,99591.69
2022-09-28T00:59:08.026Z,99588.80
2022-09-28T01:00:10.652Z,99587.50
2022-09-28T01:01:12.917Z,99585.88
2022-09-28T01:02:15.046Z,99583.29
2022-09-28T01:03:16.951Z,99581.77
2022-09-28T01:04:18.777Z,99582.04
2022-09-28T01:05:22.295Z,99584.40
2022-09-28T01:06:30.358Z,99585.80
2022-09-28T01:07:33.984Z,99581.34
2022-09-28T01:08:36.619Z,99584.40
2022-09-28T01:09:39.988Z,99587.61
2022-09-28T01:10:44.852Z,99589.23
2022-09-28T01:11:47.111Z,99588.19
2022-09-28T01:12:48.914Z,99592.46
2022-09-28T01:13:54.184Z,99588.90
2022-09-28T01:14:57.866Z,99587.67
2022-09-28T01:16:07.406Z,99591.54
2022-09-28T01:17:20.232Z,99588.73
2022-09-28T01:18:44.914Z,99590.45
2022-09-28T01:20:05.895Z,99587.91
2022-09-28T01:21:18.632Z,99584.89
2022-09-28T01:22:45.196Z,99584.18
2022-09-28T01:23:59.596Z,99581.49
2022-09-28T01:25:11.551Z,99583.70
2022-09-28T01:26:13.095Z,99585.33
2022-09-28T01:27:48.758Z,99588.02
2022-09-28T01:29:03.952Z,99589.30
2022-09-28T01:30:11.359Z,99581.61
2022-09-28T01:32:51.756Z,99581.20
2022-09-28T01:34:17.594Z,99578.24
2022-09-28T01:35:19.128Z,99572.86
2022-09-28T01:36:26.799Z,99574.29
2022-09-28T01:37:44.218Z,99573.35
2022-09-28T01:38:51.496Z,99573.43
2022-09-28T01:39:56.620Z,99577.45
2022-09-28T01:41:00.062Z,99579.06
2022-09-28T01:42:11.299Z,99576.83
2022-09-28T01:43:42.293Z,99579.17
2022-09-28T01:44:46.898Z,99584.02
2022-09-28T01:45:54.071Z,99584.50
2022-09-28T01:47:02.952Z,99584.92
2022-09-28T01:48:07.296Z,99582.92
2022-09-28T01:49:26.377Z,99578.13
2022-09-28T01:50:33.520Z,99580.53
2022-09-28T01:51:41.172Z,99576.95
2022-09-28T01:53:00.848Z,99573.19
2022-09-28T01:54:31.809Z,99570.54
2022-09-28T01:55:41.588Z,99574.38
2022-09-28T01:56:53.623Z,99574.35
2022-09-28T01:58:12.849Z,99577.23
2022-09-28T01:59:23.928Z,99577.29
2022-09-28T02:00:27.079Z,99576.24
2022-09-28T02:01:47.227Z,99578.00
2022-09-28T02:03:19.081Z,99575.52
2022-09-28T02:04:36.507Z,99571.88
2022-09-28T02:05:41.971Z,99572.44
2022-09-28T02:07:12.211Z,99572.73
2022-09-28T02:08:28.405Z,99578.65
2022-09-28T02:09:57.817Z,99577.35
2022-09-28T02:11:12.699Z,99576.06
2022-09-28T02:12:22.545Z,99580.52
2022-09-28T02:13:31.113Z,99582.71
2022-09-28T02:14:36.833Z,99582.80
2022-09-28T02:15:53.279Z,99579.63
2022-09-28T02:16:56.791Z,99580.08
2022-09-28T02:18:04.617Z,99578.48
2022-09-28T02:19:11.413Z,99580.00
2022-09-28T02:20:14.865Z,99575.56
2022-09-28T02:21:31.102Z,99571.87
2022-09-28T02:22:47.246Z,99568.25
2022-09-28T02:23:56.839Z,99566.30
2022-09-28T02:25:07.191Z,99566.84
2022-09-28T02:26:13.646Z,99561.23
2022-09-28T02:27:26.278Z,99555.86
2022-09-28T02:28:27.963Z,99557.95
2022-09-28T02:29:29.699Z,99557.68
2022-09-28T02:30:35.123Z,99553.12
2022-09-28T02:31:36.958Z,99555.32
2022-09-28T02:32:43.442Z,99555.10
2022-09-28T02:33:46.751Z,99552.52
2022-09-28T02:34:48.475Z,99554.55
2022-09-28T02:35:50.766Z,99549.95
2022-09-28T02:36:53.570Z,99547.63
2022-09-28T02:37:55.960Z,99549.78
2022-09-28T02:38:58.244Z,99550.38
2022-09-28T02:40:00.156Z,99551.63
2022-09-28T02:41:39.966Z,99550.26
2022-09-28T02:43:05.760Z,99552.45
2022-09-28T02:44:38.314Z,99552.05
2022-09-28T02:45:46.098Z,99550.28
2022-09-28T02:47:09.530Z,99551.96
2022-09-28T02:49:04.934Z,99551.98
2022-09-28T02:50:34.886Z,99547.14
2022-09-28T02:52:09.924Z,99547.21
2022-09-28T02:53:23.571Z,99542.81
2022-09-28T02:54:46.933Z,99544.38
2022-09-28T02:56:06.231Z,99543.89
2022-09-28T02:57:45.622Z,99542.50
2022-09-28T02:59:12.688Z,99545.89
2022-09-28T03:00:19.281Z,99548.22
2022-09-28T03:01:40.656Z,99543.83
2022-09-28T03:02:47.877Z,99548.21
2022-09-28T03:04:27.550Z,99548.83
2022-09-28T03:05:48.511Z,99549.27
2022-09-28T03:07:09.494Z,99552.16
2022-09-28T03:08:15.548Z,99551.21
2022-09-28T03:09:23.627Z,99553.48
2022-09-28T03:10:36.653Z,99550.73
2022-09-28T03:11:48.162Z,99551.38
2022-09-28T03:12:53.091Z,99550.35
2022-09-28T03:13:55.587Z,99551.84
2022-09-28T03:15:13.910Z,99552.98
2022-09-28T03:16:18.848Z,99551.34
2022-09-28T03:17:22.464Z,99546.88
2022-09-28T03:18:24.100Z,99543.46
2022-09-28T03:19:31.095Z,99544.66
2022-09-28T03:20:34.619Z,99544.73
2022-09-28T03:21:36.299Z,99542.17
2022-09-28T03:22:38.392Z,99545.41
2022-09-28T03:23:40.715Z,99544.83
2022-09-28T03:24:42.471Z,99542.11
2022-09-28T03:25:44.190Z,99541.92
2022-09-28T03:26:45.889Z,99542.80
2022-09-28T03:27:47.784Z,99541.28
2022-09-28T03:28:49.744Z,99540.40
2022-09-28T03:29:56.020Z,99542.98
2022-09-28T03:30:58.056Z,99541.20
2022-09-28T03:32:00.758Z,99539.52
2022-09-28T03:33:02.514Z,99536.84
2022-09-28T03:34:05.860Z,99536.66
2022-09-28T03:35:08.794Z,99537.95
2022-09-28T03:36:10.824Z,99536.52
2022-09-28T03:37:14.835Z,99534.19
2022-09-28T03:38:19.916Z,99534.17
2022-09-28T03:39:21.546Z,99534.21
2022-09-28T03:40:23.806Z,99533.32
2022-09-28T03:41:28.993Z,99536.92
2022-09-28T03:42:30.932Z,99532.84
2022-09-28T03:43:32.727Z,99532.14
2022-09-28T03:44:34.838Z,99533.27
2022-09-28T03:45:36.600Z,99534.17
2022-09-28T03:46:38.296Z,99534.33
2022-09-28T03:47:46.104Z,99533.45
2022-09-28T03:48:47.845Z,99532.95
2022-09-28T03:49:49.572Z,99533.75
2022-09-28T03:50:55.712Z,99533.86
2022-09-28T03:51:58.435Z,99532.59
2022-09-28T03:53:03.580Z,99533.27
2022-09-28T03:54:05.586Z,99531.56
2022-09-28T03:55:07.767Z,99531.84
2022-09-28T03:56:14.756Z,99528.77
2022-09-28T03:57:17.138Z,99528.58
2022-09-28T03:58:20.525Z,99525.02
2022-09-28T03:59:22.264Z,99524.77
2022-09-28T04:00:24.188Z,99523.65
2022-09-28T04:01:26.345Z,99522.67
2022-09-28T04:02:28.310Z,99524.11
2022-09-28T04:03:30.956Z,99521.05
2022-09-28T04:04:32.903Z,99519.65
2022-09-28T04:05:34.719Z,99517.11
2022-09-28T04:06:36.484Z,99518.66
2022-09-28T04:07:39.901Z,99518.10
2022-09-28T04:08:42.652Z,99513.20
2022-09-28T04:09:44.364Z,99514.84
2022-09-28T04:10:46.741Z,99512.75
2022-09-28T04:12:03.328Z,99509.80
2022-09-28T04:13:06.135Z,99508.64
2022-09-28T04:14:08.307Z,99507.25
2022-09-28T04:15:10.705Z,99505.46
2022-09-28T04:16:12.469Z,99504.66
2022-09-28T04:17:17.535Z,99501.55
2022-09-28T04:18:19.791Z,99502.77
2022-09-28T04:19:39.825Z,99503.02
2022-09-28T04:21:15.653Z,99502.05
2022-09-28T04:22:24.123Z,99499.46
2022-09-28T04:23:27.476Z,99498.06
2022-09-28T04:24:29.322Z,99499.84
2022-09-28T04:25:31.352Z,99495.88
2022-09-28T04:26:33.062Z,99496.85
2022-09-28T04:27:53.292Z,99492.77
2022-09-28T04:29:13.772Z,99492.55
2022-09-28T04:30:17.453Z,99490.86
2022-09-28T04:31:22.201Z,99487.64
2022-09-28T04:32:24.201Z,99487.30
2022-09-28T04:33:26.158Z,99483.77
2022-09-28T04:34:31.891Z,99480.38
2022-09-28T04:35:36.368Z,99480.06
2022-09-28T04:36:38.278Z,99479.69
2022-09-28T04:37:40.136Z,99480.06
2022-09-28T04:38:52.787Z,99475.85
2022-09-28T04:39:56.690Z,99476.36
2022-09-28T04:40:58.447Z,99476.64
2022-09-28T04:42:00.526Z,99477.77
2022-09-28T04:43:02.939Z,99478.06
2022-09-28T04:44:04.718Z,99477.77
2022-09-28T04:45:07.208Z,99476.10
2022-09-28T04:46:12.880Z,99478.56
2022-09-28T04:47:21.619Z,99483.52
2022-09-28T04:48:49.246Z,99484.37
2022-09-28T04:50:06.798Z,99486.20
2022-09-28T04:51:11.009Z,99489.63
2022-09-28T04:52:18.071Z,99492.15
2022-09-28T04:53:23.437Z,99491.23
2022-09-28T04:54:25.154Z,99490.85
2022-09-28T04:55:31.644Z,99491.94
2022-09-28T04:56:34.725Z,99488.86
2022-09-28T04:57:36.427Z,99491.65
2022-09-28T04:58:38.935Z,99488.98
2022-09-28T04:59:40.890Z,99492.70
2022-09-28T05:00:42.630Z,99491.73
2022-09-28T05:01:55.469Z,99491.94
2022-09-28T05:03:15.617Z,99491.80
2022-09-28T05:04:37.197Z,99494.17
2022-09-28T05:05:48.340Z,99489.89
2022-09-28T05:07:11.794Z,99491.35
2022-09-28T05:08:13.615Z,99490.81
2022-09-28T05:09:16.067Z,99488.60
2022-09-28T05:10:19.276Z,99490.84
2022-09-28T05:11:22.177Z,99491.39
2022-09-28T05:12:24.022Z,99488.98
2022-09-28T05:13:25.816Z,99490.54
2022-09-28T05:14:27.551Z,99486.40
2022-09-28T05:15:30.375Z,99490.75
2022-09-28T05:16:33.230Z,99492.58
2022-09-28T05:18:05.003Z,99492.16
2022-09-28T05:19:21.357Z,99491.72
2022-09-28T05:20:24.004Z,99491.52
2022-09-28T05:21:27.319Z,99492.74
2022-09-28T05:22:29.080Z,99491.08
2022-09-28T05:23:30.969Z,99490.17
2022-09-28T05:24:34.301Z,99493.71
2022-09-28T05:25:36.078Z,99494.57
2022-09-28T05:26:44.451Z,99491.51
2022-09-28T05:27:46.122Z,99490.06
2022-09-28T05:29:04.361Z,99490.87
2022-09-28T05:30:15.225Z,99489.45
2022-09-28T05:31:31.774Z,99489.69
2022-09-28T05:32:43.976Z,99487.08
2022-09-28T05:34:06.447Z,99486.06
2022-09-28T05:35:10.410Z,99490.31
2022-09-28T05:36:16.181Z,99488.10
2022-09-28T05:37:18.018Z,99487.70
2022-09-28T05:38:20.248Z,99492.11
2022-09-28T05:39:22.236Z,99488.80
2022-09-28T05:40:24.072Z,99488.26
2022-09-28T05:41:25.907Z,99488.38
2022-09-28T05:42:27.653Z,99491.83
2022-09-28T05:43:29.523Z,99489.46
2022-09-28T05:44:31.329Z,99491.98
2022-09-28T05:45:33.371Z,99489.02
2022-09-28T05:46:35.219Z,99486.77
2022-09-28T05:47:40.346Z,99490.41
2022-09-28T05:48:42.548Z,99487.02
2022-09-28T05:49:44.594Z,99483.52
2022-09-28T05:50:51.650Z,99486.21
2022-09-28T05:51:53.303Z,99483.58
2022-09-28T05:53:04.297Z,99481.33
2022-09-28T05:54:06.501Z,99480.77
2022-09-28T05:55:12.746Z,99480.66
2022-09-28T05:56:16.694Z,99481.84
2022-09-28T05:57:19.567Z,99477.27
2022-09-28T05:58:21.235Z,99479.67
2022-09-28T05:59:22.931Z,99480.80
2022-09-28T06:00:26.542Z,99483.81
2022-09-28T06:01:28.529Z,99481.77
2022-09-28T06:02:32.239Z,99481.06
2022-09-28T06:03:34.274Z,99485.09
2022-09-28T06:04:36.140Z,99483.41
2022-09-28T06:05:41.326Z,99483.63
2022-09-28T06:06:43.098Z,99483.77
2022-09-28T06:07:45.155Z,99484.59
2022-09-28T06:08:47.783Z,99484.70
2022-09-28T06:10:18.597Z,99486.66
2022-09-28T06:11:20.551Z,99488.54
2022-09-28T06:12:22.356Z,99488.06
2022-09-28T06:13:29.088Z,99485.93
2022-09-28T06:14:30.755Z,99487.42
2022-09-28T06:15:34.130Z,99487.91
2022-09-28T06:16:41.630Z,99484.70
2022-09-28T06:17:45.701Z,99483.20
2022-09-28T06:19:11.169Z,99484.27
2022-09-28T06:20:42.444Z,99483.52
2022-09-28T06:21:48.989Z,99480.02
2022-09-28T06:22:52.555Z,99478.79
2022-09-28T06:23:54.384Z,99479.81
2022-09-28T06:24:56.125Z,99481.53
2022-09-28T06:25:59.989Z,99476.52
2022-09-28T06:27:02.655Z,99473.95
2022-09-28T06:28:13.142Z,99477.95
2022-09-28T06:29:19.594Z,99474.31
2022-09-28T06:30:23.535Z,99473.41
2022-09-28T06:31:25.846Z,99470.79
2022-09-28T06:32:29.285Z,99472.74
2022-09-28T06:33:31.377Z,99471.63
2022-09-28T06:34:34.243Z,99470.66
2022-09-28T06:35:35.992Z,99471.41
2022-09-28T06:36:38.349Z,99469.17
2022-09-28T06:37:44.215Z,99467.95
2022-09-28T06:38:46.595Z,99471.29
2022-09-28T06:39:49.329Z,99468.23
2022-09-28T06:40:51.130Z,99466.90
2022-09-28T06:41:52.873Z,99468.83
2022-09-28T06:43:00.552Z,99468.89
2022-09-28T06:44:20.877Z,99467.13
2022-09-28T06:45:42.677Z,99464.04
2022-09-28T06:47:04.808Z,99466.16
2022-09-28T06:48:32.852Z,99466.63
2022-09-28T06:49:34.924Z,99466.84
2022-09-28T06:50:45.757Z,99469.17
2022-09-28T06:52:07.819Z,99470.61
2022-09-28T06:53:28.793Z,99471.09
2022-09-28T06:55:06.238Z,99474.73
2022-09-28T06:56:20.415Z,99471.59
2022-09-28T06:57:22.183Z,99470.52
2022-09-28T06:58:27.536Z,99472.08
2022-09-28T06:59:31.806Z,99473.12
2022-09-28T07:00:37.190Z,99469.59
2022-09-28T07:01:39.049Z,99471.79
2022-09-28T07:02:54.158Z,99478.57
2022-09-28T07:04:13.407Z,99481.30
2022-09-28T07:05:36.258Z,99482.90
2022-09-28T07:06:59.058Z,99475.61
2022-09-28T07:08:21.412Z,99477.27
2022-09-28T07:09:42.713Z,99477.59
2022-09-28T07:10:55.751Z,99480.59
2022-09-28T07:12:09.496Z,99481.19
2022-09-28T07:13:49.126Z,99477.45
2022-09-28T07:14:56.555Z,99481.73
2022-09-28T07:16:01.179Z,99479.77
2022-09-28T07:17:14.088Z,99481.91
2022-09-28T07:18:18.028Z,99483.08
2022-09-28T07:19:19.665Z,99479.44
2022-09-28T07:20:21.328Z,99483.09
2022-09-28T07:21:29.588Z,99480.52
2022-09-28T07:22:41.894Z,99483.31
2022-09-28T07:23:53.439Z,99482.77
2022-09-28T07:24:58.338Z,99478.48
2022-09-28T07:26:24.309Z,99480.48
2022-09-28T07:27:36.612Z,99478.14
2022-09-28T07:28:57.095Z,99478.68
2022-09-28T07:30:08.972Z,99478.09
2022-09-28T07:31:29.373Z,99481.41
2022-09-28T07:32:47.774Z,99478.30
2022-09-28T07:33:55.825Z,99480.60
2022-09-28T07:35:09.033Z,99479.42
2022-09-28T07:36:22.107Z,99481.20
2022-09-28T07:37:25.927Z,99481.03
2022-09-28T07:38:28.648Z,99481.78
2022-09-28T07:39:31.327Z,99478.56
2022-09-28T07:40:53.386Z,99479.48
2022-09-28T07:41:59.688Z,99480.08
2022-09-28T07:43:05.419Z,99478.89
2022-09-28T07:44:07.173Z,99479.59
2022-09-28T07:45:10.758Z,99482.66
2022-09-28T07:46:12.749Z,99483.96
2022-09-28T07:47:28.597Z,99481.81
2022-09-28T07:49:08.311Z,99484.65
2022-09-28T07:50:31.785Z,99481.58
2022-09-28T07:52:02.395Z,99481.37
2022-09-28T07:53:04.046Z,99481.68
2022-09-28T07:54:17.170Z,99482.84
2022-09-28T07:55:52.255Z,99479.07
2022-09-28T07:57:08.334Z,99480.84
2022-09-28T07:58:24.550Z,99481.63
2022-09-28T07:59:53.735Z,99483.08
2022-09-28T08:01:18.306Z,99484.63
2022-09-28T08:02:21.516Z,99485.38
2022-09-28T08:03:23.231Z,99484.58
2022-09-28T08:04:25.236Z,99485.52
2022-09-28T08:05:31.522Z,99486.24
2022-09-28T08:06:34.110Z,99485.45
2022-09-28T08:07:37.755Z,99484.52
2022-09-28T08:08:43.974Z,99485.23
2022-09-28T08:09:47.800Z,99485.61
2022-09-28T08:11:16.026Z,99485.10
2022-09-28T08:12:40.178Z,99482.56
2022-09-28T08:14:02.242Z,99486.96
2022-09-28T08:15:26.866Z,99484.81
2022-09-28T08:17:49.653Z,99484.11
2022-09-28T08:18:54.835Z,99486.98
2022-09-28T08:20:15.250Z,99485.16
2022-09-28T08:21:35.490Z,99481.76
2022-09-28T08:22:37.998Z,99482.98
2022-09-28T08:23:40.423Z,99480.14
2022-09-28T08:24:42.228Z,99480.32
2022-09-28T08:25:48.462Z,99481.45
2022-09-28T08:26:50.180Z,99481.73
2022-09-28T08:27:55.550Z,99479.66
2022-09-28T08:28:58.236Z,99481.98
2022-09-28T08:30:15.649Z,99480.81
2022-09-28T08:31:30.598Z,99482.35
2022-09-28T08:32:51.305Z,99483.16
2022-09-28T08:34:13.685Z,99482.39
2022-09-28T08:35:33.748Z,99475.66
2022-09-28T08:37:03.364Z,99474.11
2022-09-28T08:38:30.186Z,99475.79
2022-09-28T08:39:37.885Z,99476.56
2022-09-28T08:41:17.688Z,99479.30
2022-09-28T08:42:41.407Z,99481.50
2022-09-28T08:44:16.262Z,99477.11
2022-09-28T08:45:36.919Z,99480.94
2022-09-28T08:47:04.901Z,99482.27
2022-09-28T08:48:45.680Z,99487.71
2022-09-28T08:50:18.179Z,99489.13
2022-09-28T08:51:52.956Z,99491.54
2022-09-28T08:53:30.811Z,99496.58
2022-09-28T08:54:53.949Z,99496.11
2022-09-28T08:56:31.162Z,99495.07
2022-09-28T08:57:37.553Z,99497.60
2022-09-28T08:58:42.646Z,99496.26
2022-09-28T08:59:59.140Z,99495.98
2022-09-28T09:01:11.048Z,99498.54
2022-09-28T09:02:36.129Z,99494.67
2022-09-28T09:04:06.400Z,99491.77
2022-09-28T09:05:15.514Z,99491.72
2022-09-28T09:06:54.337Z,99492.83
2022-09-28T09:08:45.218Z,99493.02
2022-09-28T09:10:11.177Z,99494.95
2022-09-28T09:11:27.682Z,99494.85
2022-09-28T09:12:47.581Z,99493.85
2022-09-28T09:14:16.171Z,99495.54
2022-09-28T09:15:48.171Z,99494.77
2022-09-28T09:17:17.810Z,99496.42
2022-09-28T09:19:03.975Z,99499.00
2022-09-28T09:20:52.889Z,99500.94
2022-09-28T09:22:20.507Z,99501.23
2022-09-28T09:23:28.641Z,99502.09
2022-09-28T09:24:47.967Z,99501.16
2022-09-28T09:25:54.379Z,99501.70
2022-09-28T09:27:30.584Z,99501.65
2022-09-28T09:28:42.993Z,99502.90
2022-09-28T09:29:57.820Z,99502.02
2022-09-28T09:31:26.514Z,99501.86
2022-09-28T09:32:52.672Z,99503.85
2022-09-28T09:34:31.660Z,99506.77
2022-09-28T09:36:08.847Z,99508.52
2022-09-28T09:37:47.607Z,99509.69
2022-09-28T09:39:42.886Z,99509.13
2022-09-28T09:41:50.175Z,99505.19
2022-09-28T09:43:26.773Z,99506.80
2022-09-28T09:45:13.926Z,99507.03
2022-09-28T09:46:37.370Z,99508.20
2022-09-28T09:48:33.286Z,99509.24
2022-09-28T09:49:38.630Z,99510.27
2022-09-28T09:50:48.966Z,99510.14
2022-09-28T09:52:01.485Z,99506.77
2022-09-28T09:53:18.997Z,99504.51
2022-09-28T09:54:27.619Z,99505.05
2022-09-28T09:55:41.245Z,99507.70
2022-09-28T09:57:22.143Z,99509.48
2022-09-28T09:58:40.732Z,99509.57
2022-09-28T09:59:58.257Z,99507.23
2022-09-28T10:01:21.459Z,99506.77
2022-09-28T10:02:44.464Z,99504.81
2022-09-28T10:03:55.885Z,99507.79
2022-09-28T10:05:12.974Z,99504.09
2022-09-28T10:06:19.740Z,99503.86
2022-09-28T10:07:25.166Z,99503.02
2022-09-28T10:08:27.729Z,99505.06
2022-09-28T10:09:38.913Z,99504.27
2022-09-28T10:11:12.118Z,99507.92
2022-09-28T10:12:19.057Z,99507.50
2022-09-28T10:13:20.807Z,99504.36
2022-09-28T10:14:24.251Z,99505.50
2022-09-28T10:15:47.431Z,99502.53
2022-09-28T10:16:57.462Z,99503.00
2022-09-28T10:18:20.699Z,99495.98
2022-09-28T10:19:45.690Z,99497.30
2022-09-28T10:21:20.944Z,99498.44
2022-09-28T10:22:30.896Z,99499.55
2022-09-28T10:23:36.494Z,99505.15
2022-09-28T10:24:50.606Z,99505.59
2022-09-28T10:25:58.811Z,99504.70
2022-09-28T10:27:08.015Z,99504.66
2022-09-28T10:28:19.895Z,99505.98
2022-09-28T10:29:25.299Z,99507.16
2022-09-28T10:30:27.830Z,99509.77
2022-09-28T10:31:42.749Z,99510.41
2022-09-28T10:33:01.822Z,99510.86
2022-09-28T10:34:10.006Z,99505.98
2022-09-28T10:35:17.926Z,99506.14
2022-09-28T10:36:20.589Z,99507.83
2022-09-28T10:37:23.664Z,99509.04
2022-09-28T10:38:47.264Z,99507.10
2022-09-28T10:39:59.824Z,99511.52
2022-09-28T10:41:12.758Z,99511.80
2022-09-28T10:42:33.110Z,99512.08
2022-09-28T10:44:05.354Z,99514.06
2022-09-28T10:45:22.794Z,99509.28
2022-09-28T10:46:24.848Z,99512.13
2022-09-28T10:47:32.013Z,99511.98
2022-09-28T10:48:48.293Z,99514.62
2022-09-28T10:49:53.123Z,99513.74
2022-09-28T10:50:59.439Z,99515.84
2022-09-28T10:52:01.101Z,99516.96
2022-09-28T10:53:18.915Z,99517.35
2022-09-28T10:54:53.564Z,99517.60
2022-09-28T10:56:02.129Z,99516.30
2022-09-28T10:57:26.433Z,99515.55
2022-09-28T10:58:41.473Z,99515.81
2022-09-28T10:59:46.497Z,99517.16
2022-09-28T11:01:18.742Z,99517.49
2022-09-28T11:02:26.544Z,99514.96
2022-09-28T11:03:32.419Z,99514.85
2022-09-28T11:04:42.154Z,99517.98
2022-09-28T11:06:06.765Z,99516.09
2022-09-28T11:07:24.123Z,99512.41
2022-09-28T11:08:37.581Z,99515.50
2022-09-28T11:09:43.150Z,99513.71
2022-09-28T11:10:46.690Z,99517.75
2022-09-28T11:11:49.399Z,99516.79
2022-09-28T11:12:52.801Z,99519.20
2022-09-28T11:14:00.602Z,99520.95
2022-09-28T11:15:07.016Z,99518.16
2022-09-28T11:16:31.367Z,99519.66
2022-09-28T11:17:39.877Z,99520.95
2022-09-28T11:18:41.863Z,99522.85
2022-09-28T11:19:45.254Z,99525.54
2022-09-28T11:20:48.840Z,99517.94
2022-09-28T11:21:51.624Z,99518.33
2022-09-28T11:22:59.829Z,99518.48
2022-09-28T11:24:19.355Z,99523.69
2022-09-28T11:25:24.656Z,99521.01
2022-09-28T11:26:33.999Z,99521.28
2022-09-28T11:27:35.830Z,99522.79
2022-09-28T11:28:40.588Z,99524.31
2022-09-28T11:29:58.202Z,99522.98
2022-09-28T11:31:14.303Z,99522.82
2022-09-28T11:32:38.869Z,99524.77
2022-09-28T11:34:36.416Z,99527.67
2022-09-28T11:36:12.976Z,99527.69
2022-09-28T11:37:27.096Z,99525.35
2022-09-28T11:38:46.882Z,99528.13
2022-09-28T11:40:22.942Z,99523.23
2022-09-28T11:41:43.186Z,99522.36
2022-09-28T11:43:20.527Z,99525.66
2022-09-28T11:44:45.779Z,99525.67
2022-09-28T11:46:03.054Z,99521.48
2022-09-28T11:47:22.686Z,99525.05
2022-09-28T11:48:36.598Z,99525.81
2022-09-28T11:49:47.415Z,99526.46
2022-09-28T11:50:59.190Z,99525.58
2022-09-28T11:52:09.754Z,99524.58
2022-09-28T11:53:17.272Z,99521.20
2022-09-28T11:54:46.754Z,99518.29
2022-09-28T11:56:08.558Z,99519.48
2022-09-28T11:57:20.479Z,99511.61
2022-09-28T11:58:30.191Z,99510.80
2022-09-28T11:59:38.082Z,99509.55
2022-09-28T12:00:49.074Z,99516.05
2022-09-28T12:01:57.792Z,99518.10
2022-09-28T12:03:24.373Z,99517.67
2022-09-28T12:04:31.828Z,99517.07
2022-09-28T12:05:40.033Z,99511.63
2022-09-28T12:07:23.073Z,99515.98
2022-09-28T12:08:36.697Z,99514.69
2022-09-28T12:10:03.092Z,99512.16
2022-09-28T12:11:12.263Z,99511.68
2022-09-28T12:12:52.861Z,99512.64
2022-09-28T12:13:57.720Z,99512.48
2022-09-28T12:15:11.163Z,99515.72
2022-09-28T12:16:53.027Z,99515.21
2022-09-28T12:18:05.699Z,99512.06
2022-09-28T12:19:19.978Z,99515.73
2022-09-28T12:20:26.531Z,99512.24
2022-09-28T12:21:44.210Z,99514.32
2022-09-28T12:23:00.921Z,99515.30
2022-09-28T12:24:09.940Z,99513.69
2022-09-28T12:25:18.845Z,99515.89
2022-09-28T12:26:37.232Z,99511.49
2022-09-28T12:27:52.358Z,99512.54
2022-09-28T12:28:59.868Z,99519.38
2022-09-28T12:30:11.195Z,99513.37
2022-09-28T12:31:56.557Z,99515.27
2022-09-28T12:33:04.023Z,99511.85
2022-09-28T12:34:08.749Z,99507.96
2022-09-28T12:35:28.817Z,99509.15
2022-09-28T12:36:45.123Z,99509.03
2022-09-28T12:38:08.575Z,99508.22
2022-09-28T12:39:46.691Z,99508.53
2022-09-28T12:40:35.328Z,99506.27
2022-09-28T12:41:50.054Z,99505.67
2022-09-28T12:43:07.500Z,99502.80
2022-09-28T12:44:24.162Z,99500.12
2022-09-28T12:46:18.231Z,99498.98
2022-09-28T12:47:53.552Z,99503.45
2022-09-28T12:50:56.690Z,99511.67
2022-09-28T12:52:34.391Z,99508.06
2022-09-28T12:54:02.217Z,99508.79
2022-09-28T12:55:19.071Z,99516.25
2022-09-28T12:56:26.569Z,99513.34
2022-09-28T12:57:49.375Z,99514.67
2022-09-28T12:59:00.055Z,99518.39
2022-09-28T13:00:04.493Z,99516.60
2022-09-28T13:01:35.240Z,99518.72
2022-09-28T13:03:01.948Z,99517.32
2022-09-28T13:04:20.744Z,99514.58
2022-09-28T13:05:40.814Z,99519.05
2022-09-28T13:06:51.615Z,99515.81
2022-09-28T13:08:10.820Z,99515.66
2022-09-28T13:09:24.045Z,99521.43
2022-09-28T13:10:57.923Z,99520.55
2022-09-28T13:12:37.473Z,99520.14
2022-09-28T13:13:48.128Z,99516.42
2022-09-28T13:15:16.722Z,99519.34
2022-09-28T13:16:40.919Z,99518.50
2022-09-28T13:17:51.188Z,99518.52
2022-09-28T13:18:59.321Z,99520.79
2022-09-28T13:20:13.387Z,99519.33
2022-09-28T13:21:27.669Z,99522.70
2022-09-28T13:22:56.635Z,99518.11
2022-09-28T13:24:14.343Z,99524.94
2022-09-28T13:25:26.570Z,99518.30
2022-09-28T13:26:29.910Z,99519.83
2022-09-28T13:27:37.475Z,99523.39
2022-09-28T13:28:42.565Z,99526.62
2022-09-28T13:29:49.711Z,99525.19
2022-09-28T13:30:53.294Z,99526.66
2022-09-28T13:31:58.236Z,99530.27
2022-09-28T13:33:03.559Z,99530.36
2022-09-28T13:34:10.066Z,99531.76
2022-09-28T13:35:20.256Z,99532.10
2022-09-28T13:36:29.814Z,99533.55
2022-09-28T13:37:33.755Z,99529.34
2022-09-28T13:38:55.784Z,99526.60
2022-09-28T13:39:58.350Z,99532.61
2022-09-28T13:41:03.207Z,99536.85
2022-09-28T13:42:08.572Z,99535.86
2022-09-28T13:43:26.747Z,99536.45
2022-09-28T13:45:00.919Z,99534.88
2022-09-28T13:46:09.769Z,99539.91
2022-09-28T13:47:11.540Z,99537.73
2022-09-28T13:48:22.994Z,99539.62
2022-09-28T13:49:58.123Z,99540.61
2022-09-28T13:51:12.362Z,99542.45
2022-09-28T13:53:05.555Z,99543.00
2022-09-28T13:54:41.703Z,99539.41
2022-09-28T13:55:46.568Z,99537.98
2022-09-28T13:56:58.236Z,99542.71
2022-09-28T13:58:26.021Z,99541.11
2022-09-28T13:59:31.808Z,99541.53
2022-09-28T14:00:50.942Z,99545.34
2022-09-28T14:02:14.530Z,99544.34
2022-09-28T14:03:27.702Z,99547.48
2022-09-28T14:04:59.037Z,99548.15
2022-09-28T14:06:24.131Z,99551.32
2022-09-28T14:07:34.934Z,99553.33
2022-09-28T14:08:44.467Z,99550.38
2022-09-28T14:10:17.632Z,99550.77
2022-09-28T14:11:39.528Z,99552.55
2022-09-28T14:12:51.509Z,99550.52